createdAt,value
2023-04-20T00:01:07.949Z,17.32
2023-04-20T00:03:38.087Z,16.74
2023-04-20T00:06:06.950Z,16.88
2023-04-20T00:08:35.272Z,17.11
2023-04-20T00:11:03.517Z,17.31
2023-04-20T00:13:31.782Z,16.92
2023-04-20T00:16:00.034Z,16.09
2023-04-20T00:18:29.680Z,16.69
2023-04-20T00:20:57.970Z,16.40
2023-04-20T00:23:26.261Z,16.70
2023-04-20T00:25:54.648Z,15.78
2023-04-20T00:28:22.957Z,15.89
2023-04-20T00:30:51.316Z,15.92
2023-04-20T00:33:19.626Z,16.35
2023-04-20T00:35:49.255Z,16.21
2023-04-20T00:38:17.634Z,15.87
2023-04-20T00:40:48.850Z,15.79
2023-04-20T00:43:17.091Z,15.56
2023-04-20T00:46:29.249Z,15.51
2023-04-20T00:48:57.837Z,15.86
2023-04-20T00:51:29.053Z,16.03
2023-04-20T00:53:57.582Z,15.41
2023-04-20T00:56:25.858Z,15.62
2023-04-20T00:58:54.083Z,15.82
2023-04-20T01:01:22.366Z,15.57
2023-04-20T01:03:50.735Z,15.39
2023-04-20T01:06:19.133Z,15.47
2023-04-20T01:08:50.020Z,15.43
2023-04-20T01:11:18.515Z,15.76
2023-04-20T01:13:46.775Z,15.55
2023-04-20T01:16:15.151Z,15.05
2023-04-20T01:18:46.409Z,14.38
2023-04-20T01:21:16.396Z,14.82
2023-04-20T01:23:46.477Z,14.88
2023-04-20T01:26:16.953Z,14.98
2023-04-20T01:28:45.722Z,15.01
2023-04-20T01:31:14.894Z,15.52
2023-04-20T01:33:43.215Z,15.38
2023-04-20T01:36:11.830Z,15.57
2023-04-20T01:38:40.172Z,15.61
2023-04-20T01:41:10.948Z,15.89
2023-04-20T01:43:40.212Z,15.51
2023-04-20T01:46:08.518Z,15.42
2023-04-20T01:48:36.791Z,16.11
2023-04-20T01:51:05.332Z,15.58
2023-04-20T01:53:33.583Z,15.82
2023-04-20T01:56:01.888Z,15.80
2023-04-20T01:58:31.719Z,15.63
2023-04-20T02:01:02.354Z,15.54
2023-04-20T02:03:31.043Z,15.09
2023-04-20T02:05:59.372Z,15.22
2023-04-20T02:08:27.826Z,15.19
2023-04-20T02:10:56.083Z,15.33
2023-04-20T02:13:24.300Z,15.08
2023-04-20T02:15:54.069Z,15.19
2023-04-20T02:18:22.732Z,15.37
2023-04-20T02:20:51.102Z,15.16
2023-04-20T02:23:19.419Z,15.06
2023-04-20T02:25:47.755Z,15.69
2023-04-20T02:28:16.010Z,15.61
2023-04-20T02:30:44.477Z,15.34
2023-04-20T02:33:14.130Z,15.31
2023-04-20T02:35:42.409Z,15.61
2023-04-20T02:38:10.892Z,15.80
2023-04-20T02:40:39.149Z,15.74
2023-04-20T02:43:07.396Z,15.91
2023-04-20T02:45:35.834Z,16.02
2023-04-20T02:48:04.362Z,15.21
2023-04-20T02:50:35.094Z,15.52
2023-04-20T02:53:03.364Z,15.60
2023-04-20T02:55:31.715Z,15.88
2023-04-20T02:57:59.983Z,15.94
2023-04-20T03:00:28.309Z,16.21
2023-04-20T03:02:56.735Z,16.89
2023-04-20T03:05:25.306Z,16.53
2023-04-20T03:07:55.126Z,16.96
2023-04-20T03:10:23.508Z,16.31
2023-04-20T03:12:51.713Z,16.47
2023-04-20T03:15:20.020Z,16.12
2023-04-20T03:17:48.245Z,15.69
2023-04-20T03:20:16.811Z,16.32
2023-04-20T03:22:45.034Z,15.87
2023-04-20T03:25:14.635Z,15.99
2023-04-20T03:27:42.926Z,15.56
2023-04-20T03:30:12.384Z,15.37
2023-04-20T03:32:40.885Z,15.23
2023-04-20T03:35:10.256Z,15.65
2023-04-20T03:37:38.825Z,15.71
2023-04-20T03:40:08.462Z,15.14
2023-04-20T03:42:38.330Z,14.74
2023-04-20T03:45:07.973Z,15.54
2023-04-20T03:47:36.264Z,15.44
2023-04-20T03:50:05.182Z,15.71
2023-04-20T03:52:33.442Z,15.19
2023-04-20T03:55:01.729Z,15.10
2023-04-20T03:57:29.987Z,14.90
2023-04-20T03:59:59.642Z,14.80
2023-04-20T04:02:28.393Z,14.41
2023-04-20T04:04:56.948Z,14.84
2023-04-20T04:07:25.469Z,14.72
2023-04-20T04:09:53.717Z,13.90
2023-04-20T04:12:21.974Z,14.29
2023-04-20T04:14:50.305Z,13.91
2023-04-20T04:17:19.884Z,14.24
2023-04-20T04:19:48.239Z,13.90
2023-04-20T04:22:16.451Z,14.52
2023-04-20T04:24:44.973Z,14.33
2023-04-20T04:27:15.660Z,15.02
2023-04-20T04:29:44.809Z,14.28
2023-04-20T04:32:13.534Z,14.76
2023-04-20T04:34:44.517Z,14.34
2023-04-20T04:37:14.488Z,14.83
2023-04-20T04:39:42.775Z,14.80
2023-04-20T04:42:11.095Z,14.70
2023-04-20T04:44:40.067Z,14.17
2023-04-20T04:47:09.601Z,14.35
2023-04-20T04:49:37.808Z,14.39
2023-04-20T04:52:07.510Z,14.57
2023-04-20T04:54:35.774Z,15.37
2023-04-20T04:57:04.104Z,15.50
2023-04-20T04:59:32.335Z,15.75
2023-04-20T05:02:00.893Z,15.36
2023-04-20T05:04:29.361Z,14.67
2023-04-20T05:06:57.732Z,14.57
2023-04-20T05:09:35.156Z,14.99
2023-04-20T05:12:04.005Z,14.80
2023-04-20T05:14:32.639Z,14.79
2023-04-20T05:17:01.144Z,14.92
2023-04-20T05:19:29.638Z,14.32
2023-04-20T05:21:57.922Z,13.48
2023-04-20T05:24:27.581Z,13.50
2023-04-20T05:26:55.972Z,13.18
2023-04-20T05:29:24.255Z,13.46
2023-04-20T05:31:52.624Z,14.19
2023-04-20T05:34:21.132Z,14.58
2023-04-20T05:36:49.439Z,13.78
2023-04-20T05:39:18.027Z,14.21
2023-04-20T05:41:48.499Z,13.73
2023-04-20T05:44:17.124Z,13.98
2023-04-20T05:46:45.410Z,13.72
2023-04-20T05:49:13.685Z,14.17
2023-04-20T05:51:42.038Z,14.13
2023-04-20T05:54:11.136Z,13.70
2023-04-20T05:56:39.492Z,14.34
2023-04-20T05:59:09.495Z,14.15
2023-04-20T06:01:37.740Z,14.04
2023-04-20T06:04:06.377Z,14.58
2023-04-20T06:06:34.737Z,14.58
2023-04-20T06:09:03.859Z,14.38
2023-04-20T06:11:32.308Z,14.30
2023-04-20T06:14:00.639Z,14.03
2023-04-20T06:16:30.415Z,14.41
2023-04-20T06:18:58.720Z,14.84
2023-04-20T06:21:27.365Z,13.93
2023-04-20T06:23:55.935Z,14.70
2023-04-20T06:26:24.811Z,14.79
2023-04-20T06:28:53.253Z,13.32
2023-04-20T06:31:21.856Z,14.83
2023-04-20T06:33:51.472Z,13.94
2023-04-20T06:36:19.791Z,13.89
2023-04-20T06:38:48.012Z,14.06
2023-04-20T06:41:16.488Z,13.65
2023-04-20T06:43:45.743Z,14.53
2023-04-20T06:46:14.028Z,13.54
2023-04-20T06:48:42.314Z,15.08
2023-04-20T06:51:13.677Z,15.49
2023-04-20T06:53:41.930Z,14.19
2023-04-20T06:56:11.393Z,14.81
2023-04-20T06:58:39.715Z,14.02
2023-04-20T07:01:08.049Z,14.10
2023-04-20T07:03:36.548Z,14.51
2023-04-20T07:06:07.024Z,14.86
2023-04-20T07:08:36.792Z,14.11
2023-04-20T07:11:05.118Z,13.85
2023-04-20T07:13:34.086Z,13.41
2023-04-20T07:16:02.764Z,13.79
2023-04-20T07:18:32.356Z,13.66
2023-04-20T07:21:02.221Z,14.03
2023-04-20T07:23:30.499Z,13.91
2023-04-20T07:26:00.178Z,13.54
2023-04-20T07:28:28.433Z,14.62
2023-04-20T07:30:56.676Z,13.98
2023-04-20T07:33:25.536Z,14.37
2023-04-20T07:35:53.742Z,14.42
2023-04-20T07:38:22.063Z,13.85
2023-04-20T07:40:50.332Z,14.97
2023-04-20T07:43:19.950Z,14.92
2023-04-20T07:45:48.629Z,14.40
2023-04-20T07:48:17.003Z,15.20
2023-04-20T07:50:45.619Z,14.92
2023-04-20T07:53:14.202Z,14.15
2023-04-20T07:55:42.508Z,14.93
2023-04-20T07:58:10.966Z,15.70
2023-04-20T08:00:40.642Z,15.59
2023-04-20T08:03:09.251Z,14.77
2023-04-20T08:05:40.923Z,15.11
2023-04-20T08:08:09.230Z,15.53
2023-04-20T08:10:37.484Z,15.26
2023-04-20T08:13:06.166Z,15.50
2023-04-20T08:15:34.454Z,15.07
2023-04-20T08:18:04.295Z,14.87
2023-04-20T08:23:01.734Z,14.57
2023-04-20T08:25:30.016Z,14.70
2023-04-20T08:27:58.250Z,15.31
2023-04-20T08:30:28.254Z,15.10
2023-04-20T08:32:56.494Z,14.72
2023-04-20T08:35:26.365Z,14.85
2023-04-20T08:37:54.641Z,15.63
2023-04-20T08:40:24.498Z,15.52
2023-04-20T08:42:52.807Z,15.06
2023-04-20T08:45:21.206Z,16.12
2023-04-20T08:47:49.684Z,15.46
2023-04-20T08:50:17.971Z,15.85
2023-04-20T08:52:48.119Z,16.47
2023-04-20T08:55:16.802Z,15.50
2023-04-20T08:57:45.070Z,16.42
2023-04-20T09:00:14.492Z,15.85
2023-04-20T09:02:52.834Z,15.06
2023-04-20T09:05:29.118Z,15.63
2023-04-20T09:08:01.095Z,16.07
2023-04-20T09:10:40.914Z,16.95
2023-04-20T09:13:09.315Z,14.75
2023-04-20T09:15:37.644Z,15.28
2023-04-20T09:18:14.036Z,16.02
2023-04-20T09:20:42.383Z,16.02
2023-04-20T09:23:15.439Z,16.84
2023-04-20T09:25:46.220Z,16.97
2023-04-20T09:28:15.077Z,16.52
2023-04-20T09:30:45.226Z,16.26
2023-04-20T09:33:14.642Z,16.69
2023-04-20T09:35:44.668Z,16.65
2023-04-20T09:38:17.086Z,16.94
2023-04-20T09:40:45.646Z,16.81
2023-04-20T09:43:19.334Z,17.38
2023-04-20T09:45:47.918Z,17.04
2023-04-20T09:48:19.416Z,16.19
2023-04-20T09:50:50.458Z,16.53
2023-04-20T09:53:21.567Z,17.13
2023-04-20T09:55:51.250Z,16.11
2023-04-20T09:58:20.403Z,17.27
2023-04-20T10:00:49.055Z,17.16
2023-04-20T10:03:18.438Z,17.03
2023-04-20T10:05:47.104Z,16.73
2023-04-20T10:08:15.471Z,16.49
2023-04-20T10:10:47.183Z,16.70
2023-04-20T10:13:15.836Z,16.46
2023-04-20T10:15:44.262Z,16.79
2023-04-20T10:18:24.575Z,17.18
2023-04-20T10:20:53.109Z,16.82
2023-04-20T10:23:21.434Z,16.56
2023-04-20T10:26:01.858Z,16.35
2023-04-20T10:28:39.684Z,17.01
2023-04-20T10:31:09.173Z,16.00
2023-04-20T10:33:37.446Z,16.03
2023-04-20T10:36:06.016Z,15.59
2023-04-20T10:38:35.795Z,16.18
2023-04-20T10:41:08.844Z,15.47
2023-04-20T10:43:39.077Z,16.48
2023-04-20T10:46:15.173Z,15.97
2023-04-20T10:48:51.655Z,16.29
2023-04-20T10:51:19.999Z,15.60
2023-04-20T10:53:59.042Z,16.12
2023-04-20T10:56:28.736Z,16.72
2023-04-20T10:59:07.515Z,16.69
2023-04-20T11:01:36.171Z,17.28
2023-04-20T11:04:04.585Z,16.68
2023-04-20T11:06:32.917Z,17.55
2023-04-20T11:09:01.356Z,17.90
2023-04-20T11:11:30.962Z,17.93
2023-04-20T11:14:08.846Z,17.71
2023-04-20T11:16:49.550Z,18.59
2023-04-20T11:19:24.877Z,17.72
2023-04-20T11:21:53.258Z,17.51
2023-04-20T11:24:22.316Z,17.06
2023-04-20T11:26:54.167Z,17.88
2023-04-20T11:29:30.141Z,18.05
2023-04-20T11:31:58.826Z,17.59
2023-04-20T11:34:27.387Z,17.08
2023-04-20T11:36:56.813Z,17.49
2023-04-20T11:39:25.704Z,17.21
2023-04-20T11:41:56.607Z,17.57
2023-04-20T11:44:26.092Z,17.35
2023-04-20T11:46:57.213Z,17.62
2023-04-20T11:49:26.584Z,17.45
2023-04-20T11:51:54.991Z,17.60
2023-04-20T11:54:24.147Z,17.17
2023-04-20T11:56:52.810Z,16.50
2023-04-20T11:59:22.534Z,17.29
2023-04-20T12:01:50.736Z,17.48
2023-04-20T12:04:19.567Z,17.20
2023-04-20T12:06:48.316Z,17.27
2023-04-20T12:09:17.224Z,17.60
2023-04-20T12:11:45.751Z,17.35
2023-04-20T12:14:14.029Z,17.09
2023-04-20T12:16:43.705Z,18.08
2023-04-20T12:19:11.969Z,17.22
2023-04-20T12:21:40.216Z,16.65
2023-04-20T12:24:08.928Z,16.73
2023-04-20T12:26:38.653Z,17.27
2023-04-20T12:29:08.389Z,17.34
2023-04-20T12:31:37.199Z,16.98
2023-04-20T12:34:07.147Z,17.66
2023-04-20T12:36:36.609Z,17.26
2023-04-20T12:39:05.180Z,17.73
2023-04-20T12:41:34.495Z,17.29
2023-04-20T12:44:05.815Z,17.93
2023-04-20T12:46:35.480Z,17.92
2023-04-20T12:49:03.832Z,17.32
2023-04-20T12:51:33.510Z,17.09
2023-04-20T12:54:01.908Z,16.72
2023-04-20T12:56:30.226Z,16.94
2023-04-20T12:59:18.258Z,16.71
2023-04-20T13:01:47.339Z,16.82
2023-04-20T13:04:16.399Z,16.79
2023-04-20T13:06:46.361Z,16.41
2023-04-20T13:09:14.629Z,16.71
2023-04-20T13:11:45.332Z,17.38
2023-04-20T13:14:13.588Z,16.92
2023-04-20T13:16:41.906Z,16.72
2023-04-20T13:19:10.145Z,17.62
2023-04-20T13:21:38.695Z,17.47
2023-04-20T13:24:08.730Z,17.76
2023-04-20T13:26:37.370Z,18.31
2023-04-20T13:29:05.736Z,17.38
2023-04-20T13:31:34.674Z,17.85
2023-04-20T13:34:02.964Z,17.80
2023-04-20T13:36:31.952Z,18.00
2023-04-20T13:39:00.269Z,18.65
2023-04-20T13:41:29.955Z,18.62
2023-04-20T13:43:59.062Z,18.66
2023-04-20T13:46:27.395Z,18.74
2023-04-20T13:48:55.870Z,18.92
2023-04-20T13:51:24.151Z,19.09
2023-04-20T13:53:52.378Z,19.72
2023-04-20T13:56:21.086Z,19.34
2023-04-20T13:58:50.764Z,19.84
2023-04-20T14:01:19.088Z,19.66
2023-04-20T14:03:47.529Z,19.45
2023-04-20T14:06:15.920Z,19.82
2023-04-20T14:08:44.256Z,20.09
2023-04-20T14:11:12.574Z,19.01
2023-04-20T14:13:41.281Z,19.73
2023-04-20T14:16:11.831Z,19.15
2023-04-20T14:18:39.986Z,20.92
2023-04-20T14:21:08.297Z,20.82
2023-04-20T14:23:36.572Z,21.06
2023-04-20T14:26:04.932Z,21.20
2023-04-20T14:28:33.603Z,21.26
2023-04-20T14:31:02.883Z,21.18
2023-04-20T14:33:32.555Z,22.04
2023-04-20T14:36:00.865Z,21.43
2023-04-20T14:38:29.111Z,21.80
2023-04-20T14:40:57.339Z,20.79
2023-04-20T14:43:25.698Z,20.69
2023-04-20T14:45:55.231Z,21.09
2023-04-20T14:48:25.157Z,20.66
2023-04-20T14:50:54.875Z,21.59
2023-04-20T14:53:23.346Z,21.24
2023-04-20T14:55:52.355Z,22.31
2023-04-20T14:58:21.236Z,22.25
2023-04-20T15:00:49.868Z,22.90
2023-04-20T15:03:18.787Z,22.98
2023-04-20T15:05:48.236Z,22.42
2023-04-20T15:08:17.879Z,22.23
2023-04-20T15:10:46.131Z,22.47
2023-04-20T15:13:14.498Z,22.38
2023-04-20T15:18:16.000Z,22.37
2023-04-20T15:20:44.420Z,22.36
2023-04-20T15:23:13.060Z,23.18
2023-04-20T15:25:42.675Z,23.20
2023-04-20T15:28:11.217Z,22.40
2023-04-20T15:30:39.499Z,21.91
2023-04-20T15:33:07.837Z,22.79
2023-04-20T15:35:36.616Z,22.44
2023-04-20T15:38:04.897Z,22.69
2023-04-20T15:40:33.125Z,22.84
2023-04-20T15:43:03.657Z,23.21
2023-04-20T15:45:31.756Z,23.50
2023-04-20T15:48:00.904Z,22.66
2023-04-20T15:50:29.409Z,23.19
2023-04-20T15:52:57.713Z,24.28
2023-04-20T15:55:26.041Z,23.84
2023-04-20T15:57:57.191Z,24.34
2023-04-20T16:00:27.020Z,24.47
2023-04-20T16:02:55.549Z,24.40
2023-04-20T16:05:24.500Z,24.48
2023-04-20T16:07:53.577Z,24.55
2023-04-20T16:10:23.564Z,23.80
2023-04-20T16:12:52.170Z,23.02
2023-04-20T16:15:21.094Z,24.25
2023-04-20T16:17:50.748Z,23.88
2023-04-20T16:20:19.245Z,23.99
2023-04-20T16:22:47.455Z,23.82
2023-04-20T16:25:22.698Z,23.95
2023-04-20T16:27:51.802Z,23.09
2023-04-20T16:30:20.138Z,23.46
2023-04-20T16:32:50.014Z,23.35
2023-04-20T16:35:18.457Z,23.35
2023-04-20T16:37:46.824Z,23.39
2023-04-20T16:40:15.119Z,23.82
2023-04-20T16:42:43.407Z,23.91
2023-04-20T16:45:11.852Z,23.87
2023-04-20T16:47:40.241Z,23.83
2023-04-20T16:50:12.636Z,23.81
2023-04-20T16:52:40.896Z,23.54
2023-04-20T16:55:10.053Z,22.88
2023-04-20T16:57:38.334Z,22.30
2023-04-20T17:00:08.877Z,22.13
2023-04-20T17:02:37.563Z,22.35
2023-04-20T17:05:07.276Z,21.25
2023-04-20T17:07:38.517Z,21.06
2023-04-20T17:10:07.915Z,21.18
2023-04-20T17:12:36.131Z,20.83
2023-04-20T17:15:04.955Z,20.75
2023-04-20T17:17:34.175Z,20.51
2023-04-20T17:20:05.686Z,20.43
2023-04-20T17:22:33.965Z,19.99
2023-04-20T17:25:06.537Z,20.11
2023-04-20T17:27:35.946Z,19.61
2023-04-20T17:30:04.831Z,19.50
2023-04-20T17:32:33.380Z,19.35
2023-04-20T17:35:01.872Z,19.32
2023-04-20T17:37:30.145Z,19.08
2023-04-20T17:39:58.404Z,19.39
2023-04-20T17:42:28.087Z,19.94
2023-04-20T17:44:56.494Z,19.58
2023-04-20T17:47:24.868Z,19.47
2023-04-20T17:49:53.519Z,19.03
2023-04-20T17:52:22.335Z,18.49
2023-04-20T17:54:50.662Z,19.03
2023-04-20T17:57:18.988Z,18.94
2023-04-20T17:59:48.676Z,18.45
2023-04-20T18:02:17.495Z,18.58
2023-04-20T18:04:46.134Z,18.19
2023-04-20T18:07:16.847Z,18.39
2023-04-20T18:09:44.986Z,19.00
2023-04-20T18:12:13.243Z,18.42
2023-04-20T18:14:42.414Z,18.25
2023-04-20T18:17:12.047Z,18.46
2023-04-20T18:19:40.864Z,18.14
2023-04-20T18:22:09.163Z,18.21
2023-04-20T18:24:38.015Z,18.44
2023-04-20T18:27:06.320Z,17.95
2023-04-20T18:29:34.645Z,17.94
2023-04-20T18:32:03.072Z,18.59
2023-04-20T18:34:32.800Z,17.97
2023-04-20T18:37:01.013Z,17.88
2023-04-20T18:39:29.864Z,17.79
2023-04-20T18:41:58.199Z,17.65
2023-04-20T18:44:28.257Z,16.88
2023-04-20T18:46:56.777Z,16.70
2023-04-20T18:49:25.200Z,17.59
2023-04-20T18:51:54.934Z,17.19
2023-04-20T18:54:23.264Z,16.49
2023-04-20T18:56:51.903Z,16.22
2023-04-20T18:59:20.525Z,16.53
2023-04-20T19:01:49.490Z,16.51
2023-04-20T19:04:18.305Z,16.68
2023-04-20T19:06:46.952Z,16.53
2023-04-20T19:09:16.647Z,16.90
2023-04-20T19:11:44.938Z,16.19
2023-04-20T19:14:13.155Z,16.26
2023-04-20T19:16:41.493Z,16.36
2023-04-20T19:19:09.869Z,16.76
2023-04-20T19:21:38.124Z,16.32
2023-04-20T19:24:06.952Z,16.93
2023-04-20T19:26:36.786Z,17.61
2023-04-20T19:29:05.067Z,16.51
2023-04-20T19:31:37.507Z,16.51
2023-04-20T19:34:06.010Z,16.44
2023-04-20T19:36:34.934Z,16.77
2023-04-20T19:39:03.977Z,17.61
2023-04-20T19:41:32.249Z,17.05
2023-04-20T19:44:04.515Z,17.26
2023-04-20T19:46:33.003Z,16.31
2023-04-20T19:49:01.785Z,16.42
2023-04-20T19:51:31.904Z,16.65
2023-04-20T19:54:01.495Z,16.82
2023-04-20T19:56:29.859Z,16.10
2023-04-20T19:58:58.077Z,16.40
2023-04-20T20:01:27.697Z,16.75
2023-04-20T20:03:56.189Z,15.77
2023-04-20T20:06:24.484Z,15.89
2023-04-20T20:08:52.723Z,15.90
2023-04-20T20:11:22.045Z,15.72
2023-04-20T20:13:50.326Z,15.62
2023-04-20T20:16:19.165Z,16.25
2023-04-20T20:18:50.965Z,16.97
2023-04-20T20:21:19.193Z,16.14
2023-04-20T20:23:47.394Z,15.56
2023-04-20T20:26:15.727Z,15.63
2023-04-20T20:28:44.010Z,16.03
2023-04-20T20:31:12.246Z,16.05
2023-04-20T20:33:42.784Z,15.69
2023-04-20T20:36:12.373Z,16.13
2023-04-20T20:38:41.264Z,15.54
2023-04-20T20:41:10.796Z,16.17
2023-04-20T20:43:41.785Z,15.89
2023-04-20T20:46:10.240Z,16.35
2023-04-20T20:48:38.507Z,15.66
2023-04-20T20:51:06.755Z,16.21
2023-04-20T20:53:36.466Z,16.61
2023-04-20T20:56:04.863Z,16.77
2023-04-20T20:58:33.300Z,16.52
2023-04-20T21:01:01.623Z,17.00
2023-04-20T21:03:30.462Z,17.30
2023-04-20T21:05:58.970Z,16.25
2023-04-20T21:08:27.232Z,16.10
2023-04-20T21:10:56.921Z,17.13
2023-04-20T21:13:25.244Z,15.61
2023-04-20T21:15:53.480Z,15.78
2023-04-20T21:18:21.718Z,16.18
2023-04-20T21:20:49.972Z,15.99
2023-04-20T21:23:18.251Z,16.48
2023-04-20T21:25:46.489Z,16.96
2023-04-20T21:28:16.058Z,16.88
2023-04-20T21:30:44.357Z,16.54
2023-04-20T21:33:12.614Z,16.40
2023-04-20T21:35:40.915Z,17.13
2023-04-20T21:38:09.165Z,17.23
2023-04-20T21:40:37.464Z,16.90
2023-04-20T21:43:05.659Z,17.06
2023-04-20T21:45:36.904Z,17.05
2023-04-20T21:48:05.843Z,17.06
2023-04-20T21:50:34.173Z,16.94
2023-04-20T21:53:02.446Z,17.40
2023-04-20T21:55:30.761Z,17.78
2023-04-20T21:57:58.982Z,17.71
2023-04-20T22:00:27.357Z,17.81
2023-04-20T22:02:57.064Z,18.44
2023-04-20T22:05:26.175Z,17.90
2023-04-20T22:07:54.449Z,18.14
2023-04-20T22:10:22.670Z,18.08
2023-04-20T22:12:51.003Z,18.48
2023-04-20T22:15:22.113Z,18.52
2023-04-20T22:17:50.548Z,18.72
2023-04-20T22:20:20.212Z,19.46
2023-04-20T22:22:48.488Z,19.08
2023-04-20T22:25:16.771Z,19.13
2023-04-20T22:27:45.020Z,19.54
2023-04-20T22:30:14.107Z,19.37
2023-04-20T22:32:42.412Z,18.71
2023-04-20T22:35:10.976Z,18.54
2023-04-20T22:37:40.860Z,19.39
2023-04-20T22:40:10.331Z,18.79
2023-04-20T22:42:38.559Z,18.96
2023-04-20T22:45:09.452Z,18.89
2023-04-20T22:47:38.196Z,18.69
2023-04-20T22:50:09.670Z,18.89
2023-04-20T22:52:38.554Z,18.09
2023-04-20T22:55:09.830Z,19.58
2023-04-20T22:57:39.080Z,19.35
2023-04-20T23:00:10.709Z,19.62
2023-04-20T23:02:39.275Z,19.25
2023-04-20T23:05:08.308Z,19.64
2023-04-20T23:07:37.566Z,18.92
2023-04-20T23:10:07.094Z,19.36
2023-04-20T23:12:36.872Z,19.67
2023-04-20T23:15:06.096Z,19.68
2023-04-20T23:17:34.371Z,19.68
2023-04-20T23:20:02.921Z,19.71
2023-04-20T23:22:31.201Z,19.70
2023-04-20T23:24:59.530Z,19.72
2023-04-20T23:27:27.748Z,19.59
2023-04-20T23:29:57.346Z,19.50
2023-04-20T23:32:26.005Z,19.36
2023-04-20T23:34:54.314Z,19.51
2023-04-20T23:37:22.633Z,19.52
2023-04-20T23:39:50.840Z,19.50
2023-04-20T23:42:19.228Z,18.97
2023-04-20T23:44:47.554Z,19.49
2023-04-20T23:47:17.787Z,19.70
2023-04-20T23:49:46.100Z,19.36
2023-04-20T23:52:14.452Z,19.13
2023-04-20T23:54:42.704Z,18.72
2023-04-20T23:57:11.003Z,18.64
2023-04-20T23:59:39.307Z,18.25
